createdAt,value
2023-05-12T00:02:15.777Z,3.00
2023-05-12T00:04:46.363Z,5.43
2023-05-12T00:09:55.755Z,2.90
2023-05-12T00:12:35.520Z,2.83
2023-05-12T00:15:08.355Z,2.88
2023-05-12T00:17:38.219Z,2.75
2023-05-12T00:20:13.508Z,3.00
2023-05-12T00:22:45.624Z,2.47
2023-05-12T00:25:20.122Z,3.10
2023-05-12T00:27:50.342Z,2.53
2023-05-12T00:30:20.695Z,2.88
2023-05-12T00:32:50.021Z,2.75
2023-05-12T00:35:19.280Z,2.70
2023-05-12T00:37:56.941Z,2.03
2023-05-12T00:40:39.658Z,2.65
2023-05-12T00:43:14.428Z,1.80
2023-05-12T00:45:44.832Z,1.92
2023-05-12T00:48:17.081Z,2.67
2023-05-12T00:50:51.952Z,2.22
2023-05-12T00:53:25.783Z,2.47
2023-05-12T00:55:58.187Z,2.35
2023-05-12T00:58:36.854Z,2.78
2023-05-12T01:01:11.772Z,14.95
2023-05-12T01:03:44.953Z,2.85
2023-05-12T01:06:22.930Z,2.55
2023-05-12T01:08:53.793Z,2.85
2023-05-12T01:11:28.307Z,2.70
2023-05-12T01:13:57.785Z,2.65
2023-05-12T01:16:37.269Z,2.60
2023-05-12T01:19:26.125Z,2.70
2023-05-12T01:21:56.406Z,2.47
2023-05-12T01:24:32.741Z,2.50
2023-05-12T01:27:05.071Z,2.42
2023-05-12T01:29:36.594Z,2.65
2023-05-12T01:32:08.668Z,2.40
2023-05-12T01:34:44.343Z,2.42
2023-05-12T01:37:13.960Z,2.70
2023-05-12T01:39:43.509Z,2.38
2023-05-12T01:42:18.165Z,2.25
2023-05-12T01:44:49.657Z,2.38
2023-05-12T01:47:22.060Z,2.30
2023-05-12T01:50:03.024Z,2.50
2023-05-12T01:52:36.574Z,2.78
2023-05-12T01:55:10.480Z,2.40
2023-05-12T01:57:54.627Z,2.40
2023-05-12T02:00:25.145Z,3.03
2023-05-12T02:03:03.080Z,2.63
2023-05-12T02:05:32.127Z,2.47
2023-05-12T02:08:02.808Z,2.90
2023-05-12T02:10:40.853Z,2.83
2023-05-12T02:13:15.866Z,2.88
2023-05-12T02:15:47.214Z,2.83
2023-05-12T02:18:18.890Z,3.10
2023-05-12T02:20:55.662Z,3.22
2023-05-12T02:23:37.759Z,2.72
2023-05-12T02:26:06.831Z,2.83
2023-05-12T02:28:43.022Z,3.15
2023-05-12T02:31:12.059Z,3.00
2023-05-12T02:33:51.304Z,2.97
2023-05-12T02:36:28.725Z,3.10
2023-05-12T02:39:01.043Z,3.63
2023-05-12T02:41:30.748Z,3.75
2023-05-12T02:44:08.889Z,4.38
2023-05-12T02:46:37.944Z,4.25
2023-05-12T02:49:09.664Z,4.18
2023-05-12T02:51:43.475Z,4.05
2023-05-12T02:54:18.059Z,4.25
2023-05-12T02:56:49.249Z,4.30
2023-05-12T02:59:21.390Z,4.45
2023-05-12T03:01:57.538Z,3.67
2023-05-12T03:04:27.479Z,4.35
2023-05-12T03:07:02.038Z,5.13
2023-05-12T03:09:34.259Z,4.25
2023-05-12T03:12:09.977Z,4.03
2023-05-12T03:14:41.277Z,3.92
2023-05-12T03:17:13.653Z,3.63
2023-05-12T03:19:47.654Z,4.00
2023-05-12T03:22:22.802Z,4.60
2023-05-12T03:24:56.900Z,3.88
2023-05-12T03:27:36.511Z,5.00
2023-05-12T03:30:08.812Z,3.92
2023-05-12T03:32:42.682Z,4.13
2023-05-12T03:35:16.790Z,4.72
2023-05-12T03:37:51.450Z,4.18
2023-05-12T03:42:59.923Z,3.60
2023-05-12T03:45:31.585Z,4.05
2023-05-12T03:48:03.450Z,3.95
2023-05-12T03:50:37.318Z,3.53
2023-05-12T03:53:09.765Z,3.78
2023-05-12T03:55:48.417Z,4.47
2023-05-12T03:58:17.955Z,4.15
2023-05-12T04:00:53.591Z,3.92
2023-05-12T04:03:25.707Z,4.10
2023-05-12T04:06:05.828Z,4.43
2023-05-12T04:08:39.006Z,4.53
2023-05-12T04:11:12.713Z,4.75
2023-05-12T04:13:48.695Z,5.15
2023-05-12T04:16:20.778Z,5.22
2023-05-12T04:18:52.387Z,5.45
2023-05-12T04:21:27.345Z,4.82
2023-05-12T04:24:01.692Z,5.80
2023-05-12T04:26:41.966Z,5.97
2023-05-12T04:29:14.367Z,6.72
2023-05-12T04:31:46.778Z,7.45
2023-05-12T04:34:21.864Z,6.85
2023-05-12T04:36:54.781Z,6.97
2023-05-12T04:39:27.393Z,6.60
2023-05-12T04:42:02.405Z,8.80
2023-05-12T04:44:37.452Z,7.00
2023-05-12T04:47:06.829Z,6.63
2023-05-12T04:49:38.091Z,6.95
2023-05-12T04:52:12.696Z,6.97
2023-05-12T04:54:47.933Z,6.80
2023-05-12T04:57:25.012Z,6.30
2023-05-12T05:00:00.486Z,6.95
2023-05-12T05:02:36.490Z,5.22
2023-05-12T05:05:11.052Z,5.15
2023-05-12T05:07:49.473Z,4.40
2023-05-12T05:10:26.645Z,3.45
2023-05-12T05:13:01.347Z,3.00
2023-05-12T05:15:30.545Z,3.55
2023-05-12T05:18:02.174Z,3.60
2023-05-12T05:20:40.659Z,3.30
2023-05-12T05:23:18.464Z,2.90
2023-05-12T05:25:47.761Z,2.35
2023-05-12T05:28:19.095Z,2.78
2023-05-12T05:30:51.471Z,2.75
2023-05-12T05:33:28.653Z,2.55
2023-05-12T05:35:58.735Z,2.40
2023-05-12T05:38:34.217Z,2.20
2023-05-12T05:41:03.581Z,2.10
2023-05-12T05:43:35.470Z,2.70
2023-05-12T05:46:08.363Z,1.95
2023-05-12T05:48:42.354Z,2.60
2023-05-12T05:51:19.522Z,2.03
2023-05-12T05:54:01.664Z,2.60
2023-05-12T05:56:36.581Z,2.30
2023-05-12T05:59:05.835Z,2.08
2023-05-12T06:01:40.883Z,2.33
2023-05-12T06:04:15.378Z,2.13
2023-05-12T06:06:51.926Z,1.60
2023-05-12T06:09:25.317Z,2.80
2023-05-12T06:11:59.535Z,4.10
2023-05-12T06:14:31.589Z,2.75
2023-05-12T06:17:00.693Z,2.70
2023-05-12T06:19:36.818Z,2.13
2023-05-12T06:22:09.022Z,2.20
2023-05-12T06:24:39.319Z,2.33
2023-05-12T06:27:13.821Z,2.47
2023-05-12T06:29:45.490Z,2.50
2023-05-12T06:32:20.612Z,2.30
2023-05-12T06:34:52.828Z,2.42
2023-05-12T06:37:28.230Z,2.83
2023-05-12T06:40:03.149Z,2.17
2023-05-12T06:42:55.796Z,3.17
2023-05-12T06:45:28.922Z,2.30
2023-05-12T06:48:03.787Z,2.58
2023-05-12T06:50:38.614Z,2.97
2023-05-12T06:53:13.480Z,2.05
2023-05-12T06:55:46.849Z,2.15
2023-05-12T06:58:22.800Z,2.17
2023-05-12T07:01:00.309Z,2.50
2023-05-12T07:03:34.065Z,2.22
2023-05-12T07:06:12.258Z,2.20
2023-05-12T07:08:49.041Z,2.42
2023-05-12T07:11:28.094Z,5.60
2023-05-12T07:14:12.408Z,2.90
2023-05-12T07:16:48.316Z,2.85
2023-05-12T07:19:22.925Z,2.80
2023-05-12T07:21:55.833Z,2.25
2023-05-12T07:24:28.422Z,2.45
2023-05-12T07:27:00.727Z,2.65
2023-05-12T07:34:40.956Z,2.63
2023-05-12T07:37:34.214Z,2.85
2023-05-12T07:46:14.905Z,3.25
2023-05-12T07:48:49.335Z,3.25
2023-05-12T07:51:31.173Z,3.67
2023-05-12T07:54:15.232Z,3.40
2023-05-12T07:56:44.364Z,3.92
2023-05-12T07:59:15.935Z,3.53
2023-05-12T08:01:47.432Z,3.58
2023-05-12T08:04:22.901Z,3.60
2023-05-12T08:06:56.519Z,3.13
2023-05-12T08:12:08.419Z,3.10
2023-05-12T08:14:37.846Z,4.10
2023-05-12T08:17:12.947Z,3.10
2023-05-12T08:19:44.968Z,3.17
2023-05-12T08:24:44.092Z,3.20
2023-05-12T08:27:17.560Z,3.15
2023-05-12T08:29:52.844Z,4.05
2023-05-12T08:32:25.731Z,5.00
2023-05-12T08:34:55.637Z,3.40
2023-05-12T08:37:30.919Z,3.55
2023-05-12T08:40:04.776Z,3.00
2023-05-12T08:43:02.048Z,3.42
2023-05-12T08:45:34.663Z,2.55
2023-05-12T08:50:36.485Z,2.20
2023-05-12T08:53:13.021Z,1.85
2023-05-12T08:57:08.326Z,1.67
2023-05-12T08:58:49.149Z,1.77
2023-05-12T09:01:26.101Z,1.83
2023-05-12T09:04:01.085Z,2.33
2023-05-12T09:06:33.610Z,2.20
2023-05-12T09:09:04.398Z,2.28
2023-05-12T09:11:33.543Z,2.30
2023-05-12T09:14:12.490Z,2.45
2023-05-12T09:16:54.890Z,2.55
2023-05-12T09:19:30.185Z,2.40
2023-05-12T09:22:06.120Z,2.53
2023-05-12T09:24:39.779Z,2.05
2023-05-12T09:27:24.668Z,2.40
2023-05-12T09:30:00.059Z,2.75
2023-05-12T09:35:11.797Z,2.95
2023-05-12T09:37:43.877Z,3.13
2023-05-12T09:40:21.986Z,2.97
2023-05-12T09:42:54.437Z,2.90
2023-05-12T09:45:27.707Z,3.08
2023-05-12T09:48:09.519Z,2.83
2023-05-12T09:50:54.762Z,3.33
2023-05-12T09:53:27.072Z,2.90
2023-05-12T09:55:59.801Z,2.80
2023-05-12T09:58:33.177Z,3.00
2023-05-12T10:01:21.661Z,3.05
2023-05-12T10:04:19.583Z,2.58
2023-05-12T10:06:56.907Z,2.47
2023-05-12T10:09:36.710Z,2.70
2023-05-12T10:12:12.043Z,2.40
2023-05-12T10:14:48.412Z,2.42
2023-05-12T10:19:59.148Z,2.53
2023-05-12T10:22:35.410Z,1.70
2023-05-12T10:25:10.514Z,1.63
2023-05-12T10:27:41.374Z,2.42
2023-05-12T10:30:13.009Z,1.83
2023-05-12T10:32:46.346Z,1.98
2023-05-12T10:35:34.398Z,1.98
2023-05-12T10:38:12.202Z,1.95
2023-05-12T10:41:06.182Z,1.60
2023-05-12T10:43:49.509Z,1.70
2023-05-12T10:46:23.291Z,1.67
2023-05-12T10:49:02.856Z,1.83
2023-05-12T10:51:45.466Z,1.70
2023-05-12T10:54:25.652Z,1.90
2023-05-12T10:57:02.782Z,1.52
2023-05-12T10:59:33.875Z,2.00
2023-05-12T11:02:15.788Z,1.77
2023-05-12T11:04:56.667Z,1.60
2023-05-12T11:07:32.655Z,1.60
2023-05-12T11:10:05.350Z,1.35
2023-05-12T11:12:36.793Z,1.67
2023-05-12T11:15:15.496Z,2.00
2023-05-12T11:17:52.976Z,1.50
2023-05-12T11:20:32.101Z,1.70
2023-05-12T11:23:07.444Z,1.73
2023-05-12T11:25:44.989Z,2.00
2023-05-12T11:28:21.768Z,1.50
2023-05-12T11:30:55.555Z,1.55
2023-05-12T11:33:33.241Z,1.67
2023-05-12T11:36:11.650Z,1.80
2023-05-12T11:38:54.681Z,1.77
2023-05-12T11:41:27.475Z,1.60
2023-05-12T11:44:21.140Z,1.42
2023-05-12T11:49:46.125Z,1.80
2023-05-12T11:52:20.208Z,1.40
2023-05-12T11:55:03.900Z,1.88
2023-05-12T11:57:38.817Z,1.73
2023-05-12T12:00:13.711Z,1.70
2023-05-12T12:02:47.450Z,1.58
2023-05-12T12:05:25.435Z,1.90
2023-05-12T12:08:06.018Z,1.80
2023-05-12T12:10:35.319Z,1.73
2023-05-12T12:13:05.084Z,1.60
2023-05-12T12:15:39.754Z,1.50
2023-05-12T12:18:17.246Z,1.60
2023-05-12T12:20:48.253Z,1.60
2023-05-12T12:23:18.004Z,1.80
2023-05-12T12:25:50.339Z,1.52
2023-05-12T12:28:24.717Z,1.70
2023-05-12T12:31:03.317Z,1.45
2023-05-12T12:33:32.620Z,2.00
2023-05-12T12:36:06.343Z,1.60
2023-05-12T12:38:41.657Z,1.65
2023-05-12T12:41:13.729Z,1.70
2023-05-12T12:43:49.875Z,1.85
2023-05-12T12:46:19.621Z,1.35
2023-05-12T12:48:51.365Z,1.55
2023-05-12T12:51:20.697Z,1.73
2023-05-12T12:53:49.815Z,1.50
2023-05-12T12:56:24.358Z,1.80
2023-05-12T12:58:54.765Z,1.60
2023-05-12T13:01:30.733Z,1.73
2023-05-12T13:04:05.493Z,1.88
2023-05-12T13:06:35.274Z,1.65
2023-05-12T13:09:09.758Z,1.75
2023-05-12T13:11:47.361Z,1.40
2023-05-12T13:14:18.933Z,1.70
2023-05-12T13:16:48.529Z,1.50
2023-05-12T13:19:17.594Z,1.70
2023-05-12T13:21:55.366Z,1.60
2023-05-12T13:24:30.178Z,1.80
2023-05-12T13:27:01.843Z,1.77
2023-05-12T13:29:36.762Z,1.42
2023-05-12T13:32:06.078Z,1.70
2023-05-12T13:34:44.901Z,1.75
2023-05-12T13:37:17.383Z,1.70
2023-05-12T13:39:47.414Z,1.90
2023-05-12T13:42:23.462Z,1.50
2023-05-12T13:44:52.784Z,1.42
2023-05-12T13:47:24.998Z,1.60
2023-05-12T13:49:54.451Z,1.45
2023-05-12T13:52:26.205Z,1.40
2023-05-12T13:55:01.160Z,1.92
2023-05-12T13:57:37.312Z,1.80
2023-05-12T14:00:08.815Z,1.60
2023-05-12T14:02:47.402Z,1.73
2023-05-12T14:05:20.159Z,1.40
2023-05-12T14:07:52.493Z,1.92
2023-05-12T14:10:23.604Z,1.60
2023-05-12T14:12:52.609Z,1.35
2023-05-12T14:15:36.034Z,1.30
2023-05-12T14:18:14.975Z,1.83
2023-05-12T14:20:44.289Z,1.50
2023-05-12T14:23:20.057Z,1.33
2023-05-12T14:25:51.808Z,1.25
2023-05-12T14:28:20.976Z,1.45
2023-05-12T14:30:50.648Z,1.50
2023-05-12T14:33:24.333Z,1.20
2023-05-12T14:36:05.995Z,1.73
2023-05-12T14:38:40.966Z,1.48
2023-05-12T14:41:10.193Z,1.50
2023-05-12T14:43:46.112Z,1.50
2023-05-12T14:46:18.869Z,1.30
2023-05-12T14:48:50.835Z,1.92
2023-05-12T14:51:22.196Z,1.15
2023-05-12T14:53:55.026Z,1.50
2023-05-12T14:56:25.764Z,1.67
2023-05-12T14:58:57.393Z,1.98
2023-05-12T15:01:30.230Z,5.68
2023-05-12T15:03:59.866Z,4.70
2023-05-12T15:06:29.743Z,2.33
2023-05-12T15:08:59.389Z,4.63
2023-05-12T15:11:30.479Z,2.95
2023-05-12T15:14:05.514Z,1.75
2023-05-12T15:16:40.745Z,1.33
2023-05-12T15:19:15.945Z,2.72
2023-05-12T15:21:45.866Z,3.38
2023-05-12T15:24:15.326Z,14.85
2023-05-12T15:26:45.503Z,4.13
2023-05-12T15:29:17.811Z,1.90
2023-05-12T15:31:49.879Z,2.75
2023-05-12T15:34:26.986Z,4.90
2023-05-12T15:37:23.846Z,2.80
2023-05-12T15:39:53.196Z,2.50
2023-05-12T15:42:26.272Z,2.60
2023-05-12T15:45:04.300Z,2.97
2023-05-12T15:47:34.745Z,2.88
2023-05-12T15:50:06.750Z,2.40
2023-05-12T15:52:35.962Z,1.63
2023-05-12T15:55:05.776Z,1.90
2023-05-12T15:57:37.842Z,2.60
2023-05-12T16:00:13.036Z,2.67
2023-05-12T16:02:45.198Z,1.50
2023-05-12T16:07:46.094Z,2.20
2023-05-12T16:10:21.834Z,1.58
2023-05-12T16:12:51.339Z,1.70
2023-05-12T16:15:26.685Z,1.70
2023-05-12T16:17:58.007Z,1.80
2023-05-12T16:20:29.292Z,1.83
2023-05-12T16:22:59.614Z,1.98
2023-05-12T16:25:34.326Z,1.65
2023-05-12T16:28:15.241Z,1.50
2023-05-12T16:30:47.998Z,1.90
2023-05-12T16:33:17.811Z,1.63
2023-05-12T16:35:51.308Z,2.03
2023-05-12T16:38:27.287Z,1.80
2023-05-12T16:40:56.957Z,1.85
2023-05-12T16:43:30.661Z,1.70
2023-05-12T16:46:02.114Z,2.60
2023-05-12T16:48:34.795Z,2.50
2023-05-12T16:51:09.577Z,2.20
2023-05-12T16:53:45.998Z,2.22
2023-05-12T16:56:15.698Z,2.25
2023-05-12T16:58:45.513Z,2.03
2023-05-12T17:01:23.934Z,2.35
2023-05-12T17:03:54.146Z,2.45
2023-05-12T17:06:24.183Z,3.33
2023-05-12T17:08:57.299Z,2.35
2023-05-12T17:11:29.262Z,1.63
2023-05-12T17:13:59.085Z,1.70
2023-05-12T17:16:32.483Z,1.80
2023-05-12T17:21:39.815Z,1.75
2023-05-12T17:24:10.074Z,1.65
2023-05-12T17:26:40.342Z,1.88
2023-05-12T17:29:10.829Z,2.00
2023-05-12T17:31:47.472Z,1.45
2023-05-12T17:34:19.728Z,1.50
2023-05-12T17:36:55.708Z,1.50
2023-05-12T17:39:25.810Z,1.50
2023-05-12T17:41:58.506Z,1.40
2023-05-12T17:44:28.225Z,1.77
2023-05-12T17:49:33.222Z,1.55
2023-05-12T17:52:03.485Z,1.60
2023-05-12T17:54:41.938Z,1.42
2023-05-12T17:57:16.187Z,1.50
2023-05-12T17:59:53.854Z,1.90
2023-05-12T18:02:26.630Z,1.50
2023-05-12T18:05:01.722Z,1.83
2023-05-12T18:07:35.065Z,1.80
2023-05-12T18:10:13.884Z,2.30
2023-05-12T18:12:46.226Z,1.88
2023-05-12T18:15:20.555Z,1.70
2023-05-12T18:17:50.966Z,2.00
2023-05-12T18:20:21.770Z,2.05
2023-05-12T18:22:52.498Z,2.40
2023-05-12T18:25:21.778Z,2.10
2023-05-12T18:27:51.431Z,2.00
2023-05-12T18:30:23.770Z,1.65
2023-05-12T18:33:03.075Z,1.60
2023-05-12T18:35:35.136Z,1.83
2023-05-12T18:38:04.234Z,1.98
2023-05-12T18:40:35.820Z,2.70
2023-05-12T18:43:07.771Z,1.60
2023-05-12T18:45:38.307Z,2.10
2023-05-12T18:48:10.322Z,1.70
2023-05-12T18:50:50.028Z,1.70
2023-05-12T18:53:19.469Z,2.00
2023-05-12T18:55:52.553Z,1.67
2023-05-12T18:58:24.964Z,2.17
2023-05-12T19:01:00.494Z,1.95
2023-05-12T19:03:33.430Z,1.60
2023-05-12T19:06:08.337Z,1.52
2023-05-12T19:08:51.423Z,1.80
2023-05-12T19:11:24.220Z,1.70
2023-05-12T19:13:53.492Z,2.50
2023-05-12T19:16:24.276Z,1.85
2023-05-12T19:18:53.274Z,1.77
2023-05-12T19:21:28.245Z,1.73
2023-05-12T19:24:03.435Z,1.80
2023-05-12T19:26:37.899Z,1.65
2023-05-12T19:29:10.208Z,1.50
2023-05-12T19:31:48.570Z,1.55
2023-05-12T19:36:54.010Z,1.90
2023-05-12T19:39:27.573Z,1.88
2023-05-12T19:42:03.912Z,1.67
2023-05-12T19:44:41.788Z,1.60
2023-05-12T19:47:25.598Z,1.77
2023-05-12T19:49:59.417Z,1.88
2023-05-12T19:52:32.281Z,2.10
2023-05-12T19:55:07.271Z,2.10
2023-05-12T19:57:42.906Z,1.95
2023-05-12T20:00:22.677Z,1.50
2023-05-12T20:02:58.134Z,1.63
2023-05-12T20:05:33.126Z,1.80
2023-05-12T20:08:08.681Z,1.77
2023-05-12T20:10:44.175Z,1.50
2023-05-12T20:13:17.089Z,1.63
2023-05-12T20:15:51.523Z,2.00
2023-05-12T20:18:27.400Z,2.50
2023-05-12T20:21:04.357Z,1.73
2023-05-12T20:23:41.550Z,1.50
2023-05-12T20:26:13.495Z,1.52
2023-05-12T20:28:54.557Z,1.45
2023-05-12T20:31:29.073Z,1.75
2023-05-12T20:34:01.049Z,1.70
2023-05-12T20:36:33.560Z,1.75
2023-05-12T20:39:02.963Z,1.70
2023-05-12T20:41:37.479Z,2.00
2023-05-12T20:44:08.312Z,1.90
2023-05-12T20:46:40.946Z,1.80
2023-05-12T20:49:12.110Z,1.70
2023-05-12T20:51:41.233Z,1.80
2023-05-12T20:54:21.640Z,1.80
2023-05-12T20:57:00.014Z,1.80
2023-05-12T20:59:33.461Z,1.52
2023-05-12T21:02:12.893Z,1.50
2023-05-12T21:04:46.733Z,1.52
2023-05-12T21:07:21.902Z,2.03
2023-05-12T21:09:58.057Z,1.70
2023-05-12T21:12:32.904Z,1.77
2023-05-12T21:15:04.690Z,2.00
2023-05-12T21:17:34.964Z,1.80
2023-05-12T21:22:48.785Z,1.73
2023-05-12T21:25:24.309Z,1.52
2023-05-12T21:28:01.906Z,2.10
2023-05-12T21:30:31.584Z,2.10
2023-05-12T21:33:05.451Z,2.15
2023-05-12T21:35:38.136Z,2.30
2023-05-12T21:38:10.514Z,2.00
2023-05-12T21:40:43.488Z,2.25
2023-05-12T21:43:16.032Z,2.03
2023-05-12T21:45:45.623Z,2.05
2023-05-12T21:48:15.626Z,2.25
2023-05-12T21:51:05.223Z,2.13
2023-05-12T21:53:42.567Z,2.03
2023-05-12T21:56:14.834Z,2.20
2023-05-12T21:58:52.224Z,2.17
2023-05-12T22:01:25.397Z,2.10
2023-05-12T22:03:57.790Z,1.80
2023-05-12T22:06:30.002Z,2.08
2023-05-12T22:09:02.544Z,2.30
2023-05-12T22:11:37.457Z,2.13
2023-05-12T22:14:09.964Z,1.80
2023-05-12T22:16:42.918Z,1.92
2023-05-12T22:19:17.944Z,2.47
2023-05-12T22:21:54.010Z,2.38
2023-05-12T22:24:27.200Z,2.63
2023-05-12T22:26:56.361Z,2.17
2023-05-12T22:29:27.842Z,2.45
2023-05-12T22:31:57.090Z,2.20
2023-05-12T22:34:29.256Z,2.17
2023-05-12T22:37:01.275Z,2.70
2023-05-12T22:39:35.691Z,2.30
2023-05-12T22:42:07.916Z,2.58
2023-05-12T22:44:39.766Z,2.22
2023-05-12T22:47:11.911Z,2.53
2023-05-12T22:49:43.448Z,2.17
2023-05-12T22:52:17.903Z,2.63
2023-05-12T22:54:47.536Z,2.25
2023-05-12T22:57:19.974Z,1.98
2023-05-12T22:59:51.881Z,2.33
2023-05-12T23:02:23.130Z,2.55
2023-05-12T23:04:54.678Z,2.20
2023-05-12T23:07:29.640Z,1.88
2023-05-12T23:10:03.778Z,2.78
2023-05-12T23:12:33.856Z,2.20
2023-05-12T23:15:08.187Z,2.75
2023-05-12T23:17:40.285Z,2.30
2023-05-12T23:20:15.737Z,1.88
2023-05-12T23:22:50.628Z,2.40
2023-05-12T23:25:20.619Z,2.53
2023-05-12T23:27:50.726Z,2.28
2023-05-12T23:30:23.832Z,2.78
2023-05-12T23:32:53.924Z,2.42
2023-05-12T23:35:23.804Z,2.50
2023-05-12T23:37:56.651Z,1.98
2023-05-12T23:40:28.862Z,2.30
2023-05-12T23:43:09.940Z,2.10
2023-05-12T23:45:39.414Z,2.35
2023-05-12T23:48:17.262Z,2.10
2023-05-12T23:50:47.068Z,2.75
2023-05-12T23:53:19.756Z,2.25
2023-05-12T23:55:49.325Z,2.75
2023-05-12T23:58:22.262Z,2.60
